sensor_id;sensor_type;location;lat;lon;timestamp;P1;durP1;ratioP1;P2;durP2;ratioP2
47403;SDS011;33157;51.508;4.288;2023-12-29T00:03:56;12.95;;;3.38;;
47403;SDS011;33157;51.508;4.288;2023-12-29T00:08:56;17.27;;;2.72;;
47403;SDS011;33157;51.508;4.288;2023-12-29T00:13:58;25.53;;;4.37;;
47403;SDS011;33157;51.508;4.288;2023-12-29T00:18:58;19.50;;;3.70;;
47403;SDS011;33157;51.508;4.288;2023-12-29T00:23:59;16.05;;;2.92;;
47403;SDS011;33157;51.508;4.288;2023-12-29T00:28:59;15.60;;;3.13;;
47403;SDS011;33157;51.508;4.288;2023-12-29T00:34:00;17.75;;;3.55;;
47403;SDS011;33157;51.508;4.288;2023-12-29T00:39:00;15.73;;;2.63;;
47403;SDS011;33157;51.508;4.288;2023-12-29T00:44:01;21.70;;;2.80;;
47403;SDS011;33157;51.508;4.288;2023-12-29T00:49:04;20.10;;;3.17;;
47403;SDS011;33157;51.508;4.288;2023-12-29T00:54:04;21.38;;;4.20;;
47403;SDS011;33157;51.508;4.288;2023-12-29T00:59:05;22.10;;;3.28;;
47403;SDS011;33157;51.508;4.288;2023-12-29T01:04:05;20.08;;;3.88;;
47403;SDS011;33157;51.508;4.288;2023-12-29T01:09:06;15.60;;;2.67;;
47403;SDS011;33157;51.508;4.288;2023-12-29T01:19:08;21.77;;;3.67;;
47403;SDS011;33157;51.508;4.288;2023-12-29T01:24:09;21.65;;;3.60;;
47403;SDS011;33157;51.508;4.288;2023-12-29T01:29:09;23.45;;;3.50;;
47403;SDS011;33157;51.508;4.288;2023-12-29T01:34:10;19.83;;;2.90;;
47403;SDS011;33157;51.508;4.288;2023-12-29T01:39:10;20.40;;;2.67;;
47403;SDS011;33157;51.508;4.288;2023-12-29T01:44:17;20.85;;;3.53;;
47403;SDS011;33157;51.508;4.288;2023-12-29T01:49:21;17.10;;;2.70;;
47403;SDS011;33157;51.508;4.288;2023-12-29T01:54:22;16.58;;;3.90;;
47403;SDS011;33157;51.508;4.288;2023-12-29T01:59:24;20.40;;;3.10;;
47403;SDS011;33157;51.508;4.288;2023-12-29T02:04:25;17.92;;;2.75;;
47403;SDS011;33157;51.508;4.288;2023-12-29T02:09:26;13.98;;;2.35;;
47403;SDS011;33157;51.508;4.288;2023-12-29T02:14:27;19.77;;;3.03;;
47403;SDS011;33157;51.508;4.288;2023-12-29T02:24:34;20.27;;;3.20;;
47403;SDS011;33157;51.508;4.288;2023-12-29T02:29:36;11.50;;;2.55;;
47403;SDS011;33157;51.508;4.288;2023-12-29T02:34:38;20.08;;;2.42;;
47403;SDS011;33157;51.508;4.288;2023-12-29T02:39:40;20.10;;;3.10;;
47403;SDS011;33157;51.508;4.288;2023-12-29T02:44:41;13.32;;;2.47;;
47403;SDS011;33157;51.508;4.288;2023-12-29T02:49:41;15.40;;;3.10;;
47403;SDS011;33157;51.508;4.288;2023-12-29T02:54:41;15.60;;;2.80;;
47403;SDS011;33157;51.508;4.288;2023-12-29T02:59:42;18.83;;;3.15;;
47403;SDS011;33157;51.508;4.288;2023-12-29T03:04:42;16.17;;;2.90;;
47403;SDS011;33157;51.508;4.288;2023-12-29T03:09:43;19.13;;;3.47;;
47403;SDS011;33157;51.508;4.288;2023-12-29T03:14:44;17.08;;;2.97;;
47403;SDS011;33157;51.508;4.288;2023-12-29T03:19:45;21.00;;;3.80;;
47403;SDS011;33157;51.508;4.288;2023-12-29T03:24:45;15.10;;;3.03;;
47403;SDS011;33157;51.508;4.288;2023-12-29T03:29:46;19.27;;;3.33;;
47403;SDS011;33157;51.508;4.288;2023-12-29T03:34:46;16.63;;;3.13;;
47403;SDS011;33157;51.508;4.288;2023-12-29T03:39:47;24.00;;;3.97;;
47403;SDS011;33157;51.508;4.288;2023-12-29T03:44:47;17.88;;;3.17;;
47403;SDS011;33157;51.508;4.288;2023-12-29T03:49:48;16.48;;;3.22;;
47403;SDS011;33157;51.508;4.288;2023-12-29T03:54:48;18.65;;;3.22;;
47403;SDS011;33157;51.508;4.288;2023-12-29T03:59:49;21.23;;;3.90;;
47403;SDS011;33157;51.508;4.288;2023-12-29T04:04:49;24.45;;;3.92;;
47403;SDS011;33157;51.508;4.288;2023-12-29T04:09:50;18.52;;;3.40;;
47403;SDS011;33157;51.508;4.288;2023-12-29T04:14:50;18.08;;;3.28;;
47403;SDS011;33157;51.508;4.288;2023-12-29T04:19:51;25.65;;;4.05;;
47403;SDS011;33157;51.508;4.288;2023-12-29T04:24:51;13.48;;;2.35;;
47403;SDS011;33157;51.508;4.288;2023-12-29T04:29:51;14.90;;;3.15;;
47403;SDS011;33157;51.508;4.288;2023-12-29T04:34:52;15.52;;;3.13;;
47403;SDS011;33157;51.508;4.288;2023-12-29T04:39:52;18.90;;;3.40;;
47403;SDS011;33157;51.508;4.288;2023-12-29T04:44:53;17.60;;;2.80;;
47403;SDS011;33157;51.508;4.288;2023-12-29T04:49:53;18.95;;;2.80;;
47403;SDS011;33157;51.508;4.288;2023-12-29T04:54:54;25.52;;;4.55;;
47403;SDS011;33157;51.508;4.288;2023-12-29T04:59:54;17.65;;;2.90;;
47403;SDS011;33157;51.508;4.288;2023-12-29T05:04:55;19.35;;;2.63;;
47403;SDS011;33157;51.508;4.288;2023-12-29T05:09:55;20.17;;;2.75;;
47403;SDS011;33157;51.508;4.288;2023-12-29T05:14:55;13.90;;;3.15;;
47403;SDS011;33157;51.508;4.288;2023-12-29T05:19:56;14.00;;;2.47;;
47403;SDS011;33157;51.508;4.288;2023-12-29T05:24:56;14.98;;;3.75;;
47403;SDS011;33157;51.508;4.288;2023-12-29T05:30:00;19.50;;;3.63;;
47403;SDS011;33157;51.508;4.288;2023-12-29T05:35:00;18.80;;;2.65;;
47403;SDS011;33157;51.508;4.288;2023-12-29T05:40:01;22.45;;;3.13;;
47403;SDS011;33157;51.508;4.288;2023-12-29T05:45:01;19.13;;;3.45;;
47403;SDS011;33157;51.508;4.288;2023-12-29T05:50:02;14.35;;;3.00;;
47403;SDS011;33157;51.508;4.288;2023-12-29T05:55:03;9.50;;;2.13;;
47403;SDS011;33157;51.508;4.288;2023-12-29T06:00:04;15.50;;;2.58;;
47403;SDS011;33157;51.508;4.288;2023-12-29T06:05:05;10.52;;;2.25;;
47403;SDS011;33157;51.508;4.288;2023-12-29T06:10:05;9.50;;;1.90;;
47403;SDS011;33157;51.508;4.288;2023-12-29T06:15:06;11.98;;;2.97;;
47403;SDS011;33157;51.508;4.288;2023-12-29T06:20:07;17.02;;;2.90;;
47403;SDS011;33157;51.508;4.288;2023-12-29T06:30:11;12.13;;;2.40;;
47403;SDS011;33157;51.508;4.288;2023-12-29T06:35:12;10.80;;;2.28;;
47403;SDS011;33157;51.508;4.288;2023-12-29T06:40:12;14.50;;;2.30;;
47403;SDS011;33157;51.508;4.288;2023-12-29T06:45:13;11.10;;;2.28;;
47403;SDS011;33157;51.508;4.288;2023-12-29T06:50:13;12.25;;;3.03;;
47403;SDS011;33157;51.508;4.288;2023-12-29T06:55:14;9.55;;;1.98;;
47403;SDS011;33157;51.508;4.288;2023-12-29T07:00:14;9.25;;;2.55;;
47403;SDS011;33157;51.508;4.288;2023-12-29T07:05:15;14.63;;;2.28;;
47403;SDS011;33157;51.508;4.288;2023-12-29T07:10:16;9.15;;;1.95;;
47403;SDS011;33157;51.508;4.288;2023-12-29T07:15:17;14.43;;;2.25;;
47403;SDS011;33157;51.508;4.288;2023-12-29T07:20:17;11.38;;;1.80;;
47403;SDS011;33157;51.508;4.288;2023-12-29T07:25:18;8.68;;;1.80;;
47403;SDS011;33157;51.508;4.288;2023-12-29T07:30:18;7.15;;;2.22;;
47403;SDS011;33157;51.508;4.288;2023-12-29T07:35:19;11.30;;;2.38;;
47403;SDS011;33157;51.508;4.288;2023-12-29T07:40:19;6.55;;;1.73;;
47403;SDS011;33157;51.508;4.288;2023-12-29T07:45:20;7.78;;;2.08;;
47403;SDS011;33157;51.508;4.288;2023-12-29T07:50:20;9.80;;;1.60;;
47403;SDS011;33157;51.508;4.288;2023-12-29T07:55:21;10.75;;;2.42;;
47403;SDS011;33157;51.508;4.288;2023-12-29T08:00:21;9.07;;;1.83;;
47403;SDS011;33157;51.508;4.288;2023-12-29T08:05:23;8.57;;;1.50;;
47403;SDS011;33157;51.508;4.288;2023-12-29T08:10:23;8.77;;;1.40;;
47403;SDS011;33157;51.508;4.288;2023-12-29T08:15:24;11.52;;;3.22;;
47403;SDS011;33157;51.508;4.288;2023-12-29T08:20:24;6.90;;;1.42;;
47403;SDS011;33157;51.508;4.288;2023-12-29T08:25:24;6.50;;;1.30;;
47403;SDS011;33157;51.508;4.288;2023-12-29T08:30:25;6.78;;;1.42;;
47403;SDS011;33157;51.508;4.288;2023-12-29T08:35:25;5.80;;;1.48;;
47403;SDS011;33157;51.508;4.288;2023-12-29T08:40:26;5.95;;;1.52;;
47403;SDS011;33157;51.508;4.288;2023-12-29T08:45:26;6.22;;;0.98;;
47403;SDS011;33157;51.508;4.288;2023-12-29T08:50:27;7.68;;;1.10;;
47403;SDS011;33157;51.508;4.288;2023-12-29T08:55:27;5.53;;;1.33;;
47403;SDS011;33157;51.508;4.288;2023-12-29T09:00:28;2.88;;;0.82;;
47403;SDS011;33157;51.508;4.288;2023-12-29T09:05:31;4.72;;;0.90;;
47403;SDS011;33157;51.508;4.288;2023-12-29T09:10:31;1.85;;;0.80;;
47403;SDS011;33157;51.508;4.288;2023-12-29T09:15:32;1.23;;;0.68;;
47403;SDS011;33157;51.508;4.288;2023-12-29T09:20:34;1.73;;;0.70;;
47403;SDS011;33157;51.508;4.288;2023-12-29T09:25:35;3.42;;;0.90;;
47403;SDS011;33157;51.508;4.288;2023-12-29T09:30:35;2.25;;;0.90;;
47403;SDS011;33157;51.508;4.288;2023-12-29T09:35:35;2.38;;;0.65;;
47403;SDS011;33157;51.508;4.288;2023-12-29T09:40:36;3.67;;;1.00;;
47403;SDS011;33157;51.508;4.288;2023-12-29T09:45:38;2.85;;;1.10;;
47403;SDS011;33157;51.508;4.288;2023-12-29T09:50:38;3.57;;;1.10;;
47403;SDS011;33157;51.508;4.288;2023-12-29T09:55:40;2.65;;;0.82;;
47403;SDS011;33157;51.508;4.288;2023-12-29T10:00:42;4.85;;;1.45;;
47403;SDS011;33157;51.508;4.288;2023-12-29T10:05:44;7.90;;;1.88;;
47403;SDS011;33157;51.508;4.288;2023-12-29T10:10:45;7.57;;;1.50;;
47403;SDS011;33157;51.508;4.288;2023-12-29T10:15:50;7.45;;;2.03;;
47403;SDS011;33157;51.508;4.288;2023-12-29T10:26:35;11.80;;;1.65;;
47403;SDS011;33157;51.508;4.288;2023-12-29T10:31:36;16.83;;;3.05;;
47403;SDS011;33157;51.508;4.288;2023-12-29T10:36:47;14.13;;;3.08;;
47403;SDS011;33157;51.508;4.288;2023-12-29T10:41:49;10.77;;;2.25;;
47403;SDS011;33157;51.508;4.288;2023-12-29T10:46:52;15.70;;;2.17;;
47403;SDS011;33157;51.508;4.288;2023-12-29T10:51:53;13.30;;;2.15;;
47403;SDS011;33157;51.508;4.288;2023-12-29T10:57:02;15.80;;;2.60;;
47403;SDS011;33157;51.508;4.288;2023-12-29T11:02:03;16.80;;;3.08;;
47403;SDS011;33157;51.508;4.288;2023-12-29T11:07:03;13.68;;;2.67;;
47403;SDS011;33157;51.508;4.288;2023-12-29T11:12:04;10.20;;;1.73;;
47403;SDS011;33157;51.508;4.288;2023-12-29T11:17:08;10.70;;;1.90;;
47403;SDS011;33157;51.508;4.288;2023-12-29T11:27:12;8.02;;;1.77;;
47403;SDS011;33157;51.508;4.288;2023-12-29T11:32:16;10.88;;;1.77;;
47403;SDS011;33157;51.508;4.288;2023-12-29T11:42:57;12.55;;;1.70;;
47403;SDS011;33157;51.508;4.288;2023-12-29T11:48:01;10.75;;;1.67;;
47403;SDS011;33157;51.508;4.288;2023-12-29T11:53:03;12.02;;;2.17;;
47403;SDS011;33157;51.508;4.288;2023-12-29T11:58:04;10.70;;;1.88;;
47403;SDS011;33157;51.508;4.288;2023-12-29T12:03:19;10.85;;;2.42;;
47403;SDS011;33157;51.508;4.288;2023-12-29T12:13:46;17.85;;;4.70;;
47403;SDS011;33157;51.508;4.288;2023-12-29T12:18:48;18.23;;;3.10;;
47403;SDS011;33157;51.508;4.288;2023-12-29T12:23:48;15.45;;;2.90;;
47403;SDS011;33157;51.508;4.288;2023-12-29T12:28:53;12.88;;;3.10;;
47403;SDS011;33157;51.508;4.288;2023-12-29T12:33:54;13.18;;;3.08;;
47403;SDS011;33157;51.508;4.288;2023-12-29T12:38:58;10.60;;;2.75;;
47403;SDS011;33157;51.508;4.288;2023-12-29T12:49:16;24.48;;;4.05;;
47403;SDS011;33157;51.508;4.288;2023-12-29T12:54:17;17.10;;;2.57;;
47403;SDS011;33157;51.508;4.288;2023-12-29T12:59:19;15.65;;;3.15;;
47403;SDS011;33157;51.508;4.288;2023-12-29T13:04:21;12.20;;;3.00;;
47403;SDS011;33157;51.508;4.288;2023-12-29T13:09:21;10.48;;;2.90;;
47403;SDS011;33157;51.508;4.288;2023-12-29T13:14:22;10.00;;;2.08;;
47403;SDS011;33157;51.508;4.288;2023-12-29T13:19:23;7.88;;;2.13;;
47403;SDS011;33157;51.508;4.288;2023-12-29T13:24:24;6.97;;;1.95;;
47403;SDS011;33157;51.508;4.288;2023-12-29T13:29:25;9.07;;;1.63;;
47403;SDS011;33157;51.508;4.288;2023-12-29T13:34:34;5.70;;;1.42;;
47403;SDS011;33157;51.508;4.288;2023-12-29T13:39:42;5.30;;;1.55;;
47403;SDS011;33157;51.508;4.288;2023-12-29T13:44:45;13.68;;;2.10;;
47403;SDS011;33157;51.508;4.288;2023-12-29T13:49:46;4.80;;;1.13;;
47403;SDS011;33157;51.508;4.288;2023-12-29T13:54:48;7.50;;;1.60;;
47403;SDS011;33157;51.508;4.288;2023-12-29T13:59:49;8.52;;;1.55;;
47403;SDS011;33157;51.508;4.288;2023-12-29T14:04:49;5.82;;;1.65;;
47403;SDS011;33157;51.508;4.288;2023-12-29T14:09:53;6.38;;;1.58;;
47403;SDS011;33157;51.508;4.288;2023-12-29T14:14:54;7.25;;;2.17;;
47403;SDS011;33157;51.508;4.288;2023-12-29T14:20:02;7.78;;;2.20;;
47403;SDS011;33157;51.508;4.288;2023-12-29T14:25:06;11.35;;;2.72;;
47403;SDS011;33157;51.508;4.288;2023-12-29T14:30:17;11.03;;;1.57;;
47403;SDS011;33157;51.508;4.288;2023-12-29T14:35:18;10.10;;;1.85;;
47403;SDS011;33157;51.508;4.288;2023-12-29T14:40:18;6.70;;;1.33;;
47403;SDS011;33157;51.508;4.288;2023-12-29T14:45:19;6.80;;;1.80;;
47403;SDS011;33157;51.508;4.288;2023-12-29T14:50:20;9.77;;;1.67;;
47403;SDS011;33157;51.508;4.288;2023-12-29T14:55:20;7.63;;;1.70;;
47403;SDS011;33157;51.508;4.288;2023-12-29T15:00:21;8.95;;;1.50;;
47403;SDS011;33157;51.508;4.288;2023-12-29T15:05:21;4.30;;;1.30;;
47403;SDS011;33157;51.508;4.288;2023-12-29T15:10:22;9.48;;;2.13;;
47403;SDS011;33157;51.508;4.288;2023-12-29T15:15:23;8.77;;;2.30;;
47403;SDS011;33157;51.508;4.288;2023-12-29T15:20:23;6.03;;;1.60;;
47403;SDS011;33157;51.508;4.288;2023-12-29T15:25:24;7.30;;;1.60;;
47403;SDS011;33157;51.508;4.288;2023-12-29T15:30:25;7.85;;;2.10;;
47403;SDS011;33157;51.508;4.288;2023-12-29T15:35:26;10.93;;;2.43;;
47403;SDS011;33157;51.508;4.288;2023-12-29T15:40:26;10.93;;;2.20;;
47403;SDS011;33157;51.508;4.288;2023-12-29T15:45:27;11.00;;;1.85;;
47403;SDS011;33157;51.508;4.288;2023-12-29T15:50:27;9.60;;;1.90;;
47403;SDS011;33157;51.508;4.288;2023-12-29T15:55:27;11.70;;;2.40;;
47403;SDS011;33157;51.508;4.288;2023-12-29T16:00:28;9.75;;;2.00;;
47403;SDS011;33157;51.508;4.288;2023-12-29T16:05:28;9.27;;;2.57;;
47403;SDS011;33157;51.508;4.288;2023-12-29T16:10:28;15.93;;;3.22;;
47403;SDS011;33157;51.508;4.288;2023-12-29T16:15:29;15.80;;;2.30;;
47403;SDS011;33157;51.508;4.288;2023-12-29T16:20:30;17.60;;;2.85;;
47403;SDS011;33157;51.508;4.288;2023-12-29T16:25:30;15.37;;;2.70;;
47403;SDS011;33157;51.508;4.288;2023-12-29T16:30:30;19.00;;;3.00;;
47403;SDS011;33157;51.508;4.288;2023-12-29T16:35:31;13.53;;;2.97;;
47403;SDS011;33157;51.508;4.288;2023-12-29T16:40:31;20.13;;;2.78;;
47403;SDS011;33157;51.508;4.288;2023-12-29T16:45:32;15.13;;;2.78;;
47403;SDS011;33157;51.508;4.288;2023-12-29T16:50:33;23.23;;;3.95;;
47403;SDS011;33157;51.508;4.288;2023-12-29T16:55:33;20.10;;;3.67;;
47403;SDS011;33157;51.508;4.288;2023-12-29T17:00:33;26.05;;;3.92;;
47403;SDS011;33157;51.508;4.288;2023-12-29T17:05:34;23.70;;;4.05;;
47403;SDS011;33157;51.508;4.288;2023-12-29T17:10:34;22.27;;;4.35;;
47403;SDS011;33157;51.508;4.288;2023-12-29T17:15:34;17.57;;;3.90;;
47403;SDS011;33157;51.508;4.288;2023-12-29T17:20:35;18.60;;;3.60;;
47403;SDS011;33157;51.508;4.288;2023-12-29T17:25:35;22.33;;;4.32;;
47403;SDS011;33157;51.508;4.288;2023-12-29T17:30:36;22.40;;;5.17;;
47403;SDS011;33157;51.508;4.288;2023-12-29T17:35:36;24.65;;;4.13;;
47403;SDS011;33157;51.508;4.288;2023-12-29T17:40:37;25.73;;;4.18;;
47403;SDS011;33157;51.508;4.288;2023-12-29T17:45:37;24.43;;;4.43;;
47403;SDS011;33157;51.508;4.288;2023-12-29T17:50:37;17.23;;;4.03;;
47403;SDS011;33157;51.508;4.288;2023-12-29T17:55:38;15.27;;;3.50;;
47403;SDS011;33157;51.508;4.288;2023-12-29T18:00:38;22.85;;;4.75;;
47403;SDS011;33157;51.508;4.288;2023-12-29T18:05:39;22.40;;;4.32;;
47403;SDS011;33157;51.508;4.288;2023-12-29T18:10:40;41.20;;;5.65;;
47403;SDS011;33157;51.508;4.288;2023-12-29T18:15:40;32.00;;;5.03;;
47403;SDS011;33157;51.508;4.288;2023-12-29T18:20:40;35.05;;;5.47;;
47403;SDS011;33157;51.508;4.288;2023-12-29T18:25:41;24.23;;;3.83;;
47403;SDS011;33157;51.508;4.288;2023-12-29T18:30:42;20.73;;;4.13;;
47403;SDS011;33157;51.508;4.288;2023-12-29T18:35:42;36.95;;;5.68;;
47403;SDS011;33157;51.508;4.288;2023-12-29T18:40:42;32.83;;;5.10;;
47403;SDS011;33157;51.508;4.288;2023-12-29T18:45:43;34.55;;;6.22;;
47403;SDS011;33157;51.508;4.288;2023-12-29T18:50:43;33.88;;;6.50;;
47403;SDS011;33157;51.508;4.288;2023-12-29T18:55:44;34.70;;;6.83;;
47403;SDS011;33157;51.508;4.288;2023-12-29T19:00:44;32.20;;;4.97;;
47403;SDS011;33157;51.508;4.288;2023-12-29T19:05:50;31.30;;;5.78;;
47403;SDS011;33157;51.508;4.288;2023-12-29T19:10:51;31.42;;;7.05;;
47403;SDS011;33157;51.508;4.288;2023-12-29T19:15:52;30.77;;;6.50;;
47403;SDS011;33157;51.508;4.288;2023-12-29T19:20:53;36.22;;;5.88;;
47403;SDS011;33157;51.508;4.288;2023-12-29T19:25:53;29.73;;;5.20;;
47403;SDS011;33157;51.508;4.288;2023-12-29T19:30:53;28.00;;;5.95;;
47403;SDS011;33157;51.508;4.288;2023-12-29T19:35:54;21.98;;;5.85;;
47403;SDS011;33157;51.508;4.288;2023-12-29T19:40:54;26.65;;;6.05;;
47403;SDS011;33157;51.508;4.288;2023-12-29T19:45:55;22.85;;;5.05;;
47403;SDS011;33157;51.508;4.288;2023-12-29T19:50:55;23.50;;;4.17;;
47403;SDS011;33157;51.508;4.288;2023-12-29T19:55:55;24.40;;;5.73;;
47403;SDS011;33157;51.508;4.288;2023-12-29T20:00:57;33.85;;;5.78;;
47403;SDS011;33157;51.508;4.288;2023-12-29T20:05:59;27.33;;;4.75;;
47403;SDS011;33157;51.508;4.288;2023-12-29T20:10:59;29.73;;;6.05;;
47403;SDS011;33157;51.508;4.288;2023-12-29T20:16:00;26.52;;;4.97;;
47403;SDS011;33157;51.508;4.288;2023-12-29T20:21:00;19.90;;;3.47;;
47403;SDS011;33157;51.508;4.288;2023-12-29T20:26:01;27.70;;;4.30;;
47403;SDS011;33157;51.508;4.288;2023-12-29T20:31:02;30.55;;;4.75;;
47403;SDS011;33157;51.508;4.288;2023-12-29T20:36:02;21.53;;;4.50;;
47403;SDS011;33157;51.508;4.288;2023-12-29T20:41:03;28.25;;;5.65;;
47403;SDS011;33157;51.508;4.288;2023-12-29T20:46:03;24.50;;;5.50;;
47403;SDS011;33157;51.508;4.288;2023-12-29T20:51:04;28.35;;;5.88;;
47403;SDS011;33157;51.508;4.288;2023-12-29T20:56:08;18.60;;;4.47;;
47403;SDS011;33157;51.508;4.288;2023-12-29T21:01:10;27.35;;;4.68;;
47403;SDS011;33157;51.508;4.288;2023-12-29T21:06:13;24.88;;;4.32;;
47403;SDS011;33157;51.508;4.288;2023-12-29T21:11:15;24.23;;;4.20;;
47403;SDS011;33157;51.508;4.288;2023-12-29T21:16:19;30.20;;;7.13;;
47403;SDS011;33157;51.508;4.288;2023-12-29T21:21:20;23.20;;;4.50;;
47403;SDS011;33157;51.508;4.288;2023-12-29T21:26:21;22.15;;;3.80;;
47403;SDS011;33157;51.508;4.288;2023-12-29T21:31:25;27.42;;;4.18;;
47403;SDS011;33157;51.508;4.288;2023-12-29T21:36:28;31.63;;;3.45;;
47403;SDS011;33157;51.508;4.288;2023-12-29T21:41:35;22.30;;;4.10;;
47403;SDS011;33157;51.508;4.288;2023-12-29T21:46:39;20.45;;;4.45;;
47403;SDS011;33157;51.508;4.288;2023-12-29T21:51:40;26.63;;;3.88;;
47403;SDS011;33157;51.508;4.288;2023-12-29T21:56:41;24.83;;;4.90;;
47403;SDS011;33157;51.508;4.288;2023-12-29T22:01:41;20.08;;;5.10;;
47403;SDS011;33157;51.508;4.288;2023-12-29T22:06:41;15.07;;;3.37;;
47403;SDS011;33157;51.508;4.288;2023-12-29T22:11:42;14.30;;;3.20;;
47403;SDS011;33157;51.508;4.288;2023-12-29T22:16:43;25.05;;;2.78;;
47403;SDS011;33157;51.508;4.288;2023-12-29T22:21:44;15.80;;;2.80;;
47403;SDS011;33157;51.508;4.288;2023-12-29T22:26:47;16.60;;;3.25;;
47403;SDS011;33157;51.508;4.288;2023-12-29T22:31:47;20.30;;;2.77;;
47403;SDS011;33157;51.508;4.288;2023-12-29T22:36:47;17.40;;;2.75;;
47403;SDS011;33157;51.508;4.288;2023-12-29T22:41:48;20.73;;;3.05;;
47403;SDS011;33157;51.508;4.288;2023-12-29T22:46:48;22.60;;;2.97;;
47403;SDS011;33157;51.508;4.288;2023-12-29T22:51:49;13.68;;;3.42;;
47403;SDS011;33157;51.508;4.288;2023-12-29T22:56:49;14.20;;;2.60;;
47403;SDS011;33157;51.508;4.288;2023-12-29T23:01:50;15.90;;;2.72;;
47403;SDS011;33157;51.508;4.288;2023-12-29T23:06:50;16.67;;;2.73;;
47403;SDS011;33157;51.508;4.288;2023-12-29T23:11:51;16.70;;;2.35;;
47403;SDS011;33157;51.508;4.288;2023-12-29T23:16:52;13.40;;;2.78;;
47403;SDS011;33157;51.508;4.288;2023-12-29T23:21:52;17.98;;;2.50;;
47403;SDS011;33157;51.508;4.288;2023-12-29T23:26:52;12.77;;;2.20;;
47403;SDS011;33157;51.508;4.288;2023-12-29T23:31:53;12.00;;;2.53;;
47403;SDS011;33157;51.508;4.288;2023-12-29T23:36:53;13.55;;;2.28;;
47403;SDS011;33157;51.508;4.288;2023-12-29T23:41:53;18.07;;;3.60;;
47403;SDS011;33157;51.508;4.288;2023-12-29T23:46:54;19.00;;;2.73;;
47403;SDS011;33157;51.508;4.288;2023-12-29T23:51:54;22.08;;;2.30;;
47403;SDS011;33157;51.508;4.288;2023-12-29T23:56:55;15.35;;;2.47;;
